Time;durP1;ratioP1;P1;durP2;ratioP2;P2;SDS_P1;SDS_P2;PMS_P1;PMS_P2;Temp;Humidity;BMP_temperature;BMP_pressure;BME280_temperature;BME280_humidity;BME280_pressure;Samples;Min_cycle;Max_cycle;Signal;HPM_P1;HPM_P2
2021/11/24 00:01:58;;;;;;;;;46.75;39.50;;;;;;;;5071561;28;49698;-72
2021/11/24 00:04:24;;;;;;;;;40.75;38.75;;;;;;;;5071496;28;49637;-72
2021/11/24 00:06:49;;;;;;;;;37.25;33.00;;;;;;;;5071232;28;50351;-71
2021/11/24 00:09:14;;;;;;;;;39.75;34.25;;;;;;;;5071333;28;49800;-72
2021/11/24 00:11:39;;;;;;;;;40.75;33.75;;;;;;;;5071205;28;49676;-72
2021/11/24 00:14:04;;;;;;;;;49.00;38.75;;;;;;;;5071571;28;49751;-72
2021/11/24 00:16:30;;;;;;;;;41.75;38.00;;;;;;;;5071216;28;50312;-72
2021/11/24 00:18:55;;;;;;;;;40.50;36.75;;;;;;;;5071032;28;49538;-72
2021/11/24 00:21:20;;;;;;;;;30.75;27.50;;;;;;;;5071098;28;49786;-73
2021/11/24 00:23:46;;;;;;;;;43.50;39.25;;;;;;;;5071498;28;49987;-72
2021/11/24 00:26:11;;;;;;;;;36.75;31.75;;;;;;;;5070697;28;50532;-72
2021/11/24 00:28:36;;;;;;;;;47.50;39.50;;;;;;;;5071116;27;49649;-71
2021/11/24 00:31:02;;;;;;;;;36.50;31.50;;;;;;;;5070912;28;49916;-72
2021/11/24 00:33:27;;;;;;;;;37.50;32.50;;;;;;;;5069515;28;49845;-72
2021/11/24 00:35:53;;;;;;;;;40.00;36.00;;;;;;;;5070875;28;50571;-72
2021/11/24 00:38:18;;;;;;;;;38.25;31.50;;;;;;;;5070831;27;49927;-72
2021/11/24 00:40:43;;;;;;;;;40.00;32.00;;;;;;;;5070990;28;49663;-72
2021/11/24 00:43:08;;;;;;;;;36.75;34.25;;;;;;;;5070956;28;49673;-72
2021/11/24 00:45:34;;;;;;;;;39.25;33.00;;;;;;;;5070640;28;50226;-72
2021/11/24 00:47:59;;;;;;;;;30.00;29.75;;;;;;;;5070155;28;50134;-73
2021/11/24 00:50:24;;;;;;;;;31.00;28.25;;;;;;;;5070358;28;49885;-73
2021/11/24 00:52:51;;;;;;;;;37.25;33.50;;;;;;;;5069626;28;49668;-74
2021/11/24 00:55:16;;;;;;;;;31.75;27.50;;;;;;;;5070563;27;49678;-76
2021/11/24 00:57:42;;;;;;;;;35.50;35.50;;;;;;;;5070908;27;49812;-76
2021/11/24 01:00:08;;;;;;;;;35.75;33.25;;;;;;;;5070679;28;49679;-71
2021/11/24 01:02:33;;;;;;;;;33.00;28.25;;;;;;;;5070821;27;50178;-71
2021/11/24 01:04:58;;;;;;;;;26.75;26.00;;;;;;;;5070283;28;50329;-71
2021/11/24 01:07:23;;;;;;;;;28.75;26.75;;;;;;;;5070452;28;49780;-72
2021/11/24 01:09:51;;;;;;;;;31.25;28.25;;;;;;;;5070601;28;50027;-72
2021/11/24 01:12:17;;;;;;;;;28.25;26.00;;;;;;;;5069404;28;49687;-72
2021/11/24 01:14:43;;;;;;;;;34.75;28.75;;;;;;;;5070326;27;50347;-74
2021/11/24 01:17:08;;;;;;;;;32.75;31.25;;;;;;;;5070615;28;49906;-76
2021/11/24 01:19:33;;;;;;;;;27.25;25.00;;;;;;;;5070470;28;49749;-76
2021/11/24 01:21:58;;;;;;;;;35.25;29.25;;;;;;;;5070393;28;49532;-77
2021/11/24 01:24:23;;;;;;;;;32.25;30.50;;;;;;;;5070200;28;49749;-76
2021/11/24 01:26:49;;;;;;;;;33.50;28.75;;;;;;;;5070239;28;49764;-80
2021/11/24 01:29:14;;;;;;;;;32.00;28.00;;;;;;;;5070444;28;50120;-76
2021/11/24 01:31:39;;;;;;;;;30.50;29.25;;;;;;;;5070536;28;49775;-74
2021/11/24 01:34:04;;;;;;;;;29.50;26.25;;;;;;;;5069897;28;51109;-76
2021/11/24 01:36:29;;;;;;;;;34.00;30.75;;;;;;;;5070289;28;49865;-79
2021/11/24 01:38:55;;;;;;;;;25.25;25.00;;;;;;;;5070399;28;50018;-78
2021/11/24 01:41:20;;;;;;;;;28.50;25.25;;;;;;;;5070244;28;49953;-73
2021/11/24 01:43:45;;;;;;;;;34.75;30.75;;;;;;;;5070147;28;49597;-78
2021/11/24 01:46:10;;;;;;;;;29.25;25.75;;;;;;;;5068207;28;49955;-72
2021/11/24 01:48:36;;;;;;;;;26.25;26.25;;;;;;;;5069996;28;49647;-71
2021/11/24 01:51:01;;;;;;;;;30.50;28.25;;;;;;;;5070341;28;49639;-73
2021/11/24 01:53:26;;;;;;;;;29.75;23.25;;;;;;;;5068365;28;51691;-72
2021/11/24 01:55:52;;;;;;;;;35.25;31.25;;;;;;;;5068464;28;49798;-72
2021/11/24 01:58:17;;;;;;;;;33.00;31.00;;;;;;;;5069914;27;49795;-72
2021/11/24 02:00:42;;;;;;;;;31.00;28.25;;;;;;;;5072463;28;49751;-76
2021/11/24 02:03:08;;;;;;;;;37.00;33.00;;;;;;;;5073420;28;50276;-80
2021/11/24 02:05:33;;;;;;;;;35.75;29.50;;;;;;;;5073067;28;49988;-75
2021/11/24 02:07:59;;;;;;;;;35.75;32.25;;;;;;;;5071920;28;49767;-78
2021/11/24 02:10:24;;;;;;;;;36.75;33.75;;;;;;;;5073615;27;49912;-72
2021/11/24 02:12:50;;;;;;;;;31.75;27.25;;;;;;;;5073245;27;50612;-76
2021/11/24 02:15:16;;;;;;;;;35.00;34.25;;;;;;;;5073343;27;49922;-72
2021/11/24 02:17:41;;;;;;;;;36.50;34.25;;;;;;;;5073241;28;49702;-71
2021/11/24 02:20:11;;;;;;;;;45.50;33.00;;;;;;;;5071597;28;49592;-72
2021/11/24 02:22:36;;;;;;;;;34.50;32.25;;;;;;;;5072549;27;49781;-72
2021/11/24 02:25:01;;;;;;;;;41.25;30.75;;;;;;;;5073076;28;50025;-72
2021/11/24 02:27:27;;;;;;;;;34.50;31.25;;;;;;;;5073099;28;49772;-72
2021/11/24 02:29:52;;;;;;;;;42.00;36.50;;;;;;;;5071956;28;49931;-71
2021/11/24 02:32:17;;;;;;;;;31.50;30.00;;;;;;;;5072692;28;49715;-72
2021/11/24 02:34:42;;;;;;;;;34.50;30.00;;;;;;;;5072745;27;49739;-72
2021/11/24 02:37:08;;;;;;;;;38.25;33.50;;;;;;;;5072744;27;50070;-72
2021/11/24 02:39:33;;;;;;;;;38.25;33.00;;;;;;;;5073071;27;49661;-72
2021/11/24 02:41:58;;;;;;;;;31.25;29.75;;;;;;;;5072672;28;49802;-72
2021/11/24 02:44:28;;;;;;;;;39.00;35.75;;;;;;;;5072900;28;49968;-71
2021/11/24 02:46:54;;;;;;;;;41.00;34.00;;;;;;;;5072699;28;49864;-72
2021/11/24 02:49:19;;;;;;;;;33.00;29.50;;;;;;;;5072598;27;49706;-71
2021/11/24 02:51:45;;;;;;;;;45.25;32.00;;;;;;;;5072355;28;50728;-72
2021/11/24 02:54:11;;;;;;;;;35.50;32.75;;;;;;;;5072907;27;49851;-72
2021/11/24 02:56:37;;;;;;;;;26.25;26.25;;;;;;;;5072565;28;49751;-72
2021/11/24 02:59:03;;;;;;;;;30.50;27.50;;;;;;;;5070988;28;50112;-72
2021/11/24 03:01:28;;;;;;;;;33.50;31.25;;;;;;;;5072481;28;49834;-72
2021/11/24 03:03:53;;;;;;;;;32.75;30.00;;;;;;;;5072196;28;49940;-71
2021/11/24 03:06:18;;;;;;;;;36.75;33.50;;;;;;;;5072263;28;50032;-71
2021/11/24 03:08:44;;;;;;;;;38.50;34.00;;;;;;;;5071275;28;49732;-71
2021/11/24 03:11:09;;;;;;;;;43.75;29.50;;;;;;;;5071402;27;50509;-73
2021/11/24 03:13:35;;;;;;;;;31.75;25.25;;;;;;;;5072225;27;49732;-72
2021/11/24 03:16:00;;;;;;;;;34.25;32.50;;;;;;;;5072181;28;49814;-72
2021/11/24 03:18:25;;;;;;;;;35.00;29.25;;;;;;;;5072353;28;50106;-72
2021/11/24 03:20:50;;;;;;;;;34.75;30.25;;;;;;;;5071702;28;50732;-72
2021/11/24 03:23:15;;;;;;;;;32.25;31.50;;;;;;;;5072138;28;49790;-72
2021/11/24 03:25:41;;;;;;;;;32.50;29.50;;;;;;;;5072046;28;49924;-72
2021/11/24 03:28:06;;;;;;;;;31.00;29.00;;;;;;;;5072320;28;49749;-72
2021/11/24 03:30:33;;;;;;;;;32.00;29.00;;;;;;;;5071870;27;50466;-71
2021/11/24 03:32:59;;;;;;;;;30.75;28.25;;;;;;;;5071967;27;49768;-72
2021/11/24 03:35:25;;;;;;;;;33.75;30.25;;;;;;;;5071680;27;49901;-72
2021/11/24 03:37:52;;;;;;;;;30.50;24.25;;;;;;;;5072101;27;49837;-72
2021/11/24 03:40:17;;;;;;;;;32.50;27.50;;;;;;;;5071758;27;50497;-72
2021/11/24 03:42:46;;;;;;;;;30.75;29.75;;;;;;;;5071723;28;49745;-73
2021/11/24 03:45:11;;;;;;;;;40.25;36.00;;;;;;;;5071902;27;49663;-72
2021/11/24 03:47:36;;;;;;;;;28.75;26.75;;;;;;;;5071978;27;49791;-72
2021/11/24 03:50:03;;;;;;;;;31.00;30.50;;;;;;;;5071173;28;49851;-72
2021/11/24 03:52:28;;;;;;;;;37.75;34.50;;;;;;;;5070113;28;49726;-73
2021/11/24 03:54:53;;;;;;;;;32.00;31.50;;;;;;;;5071598;28;49736;-72
2021/11/24 03:57:18;;;;;;;;;43.50;34.50;;;;;;;;5070271;28;49846;-71
2021/11/24 03:59:44;;;;;;;;;30.50;28.25;;;;;;;;5071436;28;50679;-72
2021/11/24 04:02:09;;;;;;;;;29.00;24.75;;;;;;;;5071361;28;49647;-72
2021/11/24 04:04:34;;;;;;;;;38.50;29.25;;;;;;;;5069992;28;49641;-71
2021/11/24 04:07:01;;;;;;;;;39.00;33.25;;;;;;;;5070263;28;49767;-71
2021/11/24 04:09:26;;;;;;;;;33.00;29.25;;;;;;;;5071243;27;49734;-72
2021/11/24 04:11:51;;;;;;;;;31.00;28.00;;;;;;;;5071499;28;49742;-71
2021/11/24 04:14:17;;;;;;;;;35.75;29.00;;;;;;;;5071411;28;49768;-72
2021/11/24 04:16:42;;;;;;;;;39.50;31.50;;;;;;;;5071466;28;49922;-72
2021/11/24 04:19:07;;;;;;;;;39.00;33.75;;;;;;;;5070874;28;49937;-72
2021/11/24 04:21:32;;;;;;;;;32.50;30.75;;;;;;;;5071128;28;49814;-72
2021/11/24 04:23:58;;;;;;;;;29.25;25.00;;;;;;;;5070042;27;49768;-72
2021/11/24 04:26:23;;;;;;;;;33.50;29.25;;;;;;;;5069994;28;49966;-72
2021/11/24 04:28:49;;;;;;;;;33.50;28.00;;;;;;;;5070933;28;50851;-72
2021/11/24 04:31:14;;;;;;;;;38.75;32.75;;;;;;;;5071044;28;49599;-72
2021/11/24 04:33:39;;;;;;;;;40.25;36.50;;;;;;;;5069397;28;49940;-72
2021/11/24 04:36:05;;;;;;;;;39.00;35.50;;;;;;;;5071205;28;49578;-72
2021/11/24 04:38:30;;;;;;;;;45.00;32.75;;;;;;;;5070897;27;50352;-71
2021/11/24 04:40:56;;;;;;;;;41.25;32.50;;;;;;;;5070855;27;49679;-72
2021/11/24 04:43:24;;;;;;;;;38.25;31.00;;;;;;;;5069556;28;49774;-73
2021/11/24 04:45:50;;;;;;;;;33.00;26.00;;;;;;;;5070917;28;49895;-72
2021/11/24 04:48:15;;;;;;;;;33.50;27.00;;;;;;;;5070223;28;50485;-72
2021/11/24 04:50:41;;;;;;;;;30.00;27.50;;;;;;;;5070747;27;49714;-71
2021/11/24 04:53:06;;;;;;;;;32.25;30.25;;;;;;;;5070798;28;49583;-72
2021/11/24 04:55:33;;;;;;;;;31.50;29.50;;;;;;;;5071150;28;49773;-72
2021/11/24 04:57:58;;;;;;;;;37.75;33.50;;;;;;;;5070529;27;49748;-71
2021/11/24 05:00:23;;;;;;;;;41.50;37.50;;;;;;;;5070679;28;49736;-71
2021/11/24 05:02:51;;;;;;;;;27.25;22.00;;;;;;;;5070807;28;50239;-71
2021/11/24 05:05:17;;;;;;;;;34.25;32.25;;;;;;;;5070481;27;49875;-71
2021/11/24 05:07:42;;;;;;;;;36.00;31.00;;;;;;;;5070297;27;50156;-71
2021/11/24 05:10:07;;;;;;;;;33.25;27.75;;;;;;;;5070633;27;49479;-73
2021/11/24 05:12:36;;;;;;;;;32.75;31.50;;;;;;;;5070748;27;49755;-72
2021/11/24 05:15:02;;;;;;;;;41.25;36.00;;;;;;;;5070807;27;49754;-72
2021/11/24 05:17:30;;;;;;;;;42.00;30.50;;;;;;;;5070507;27;49908;-71
2021/11/24 05:19:55;;;;;;;;;37.25;32.00;;;;;;;;5070304;27;49735;-72
2021/11/24 05:22:21;;;;;;;;;32.50;29.75;;;;;;;;5070216;27;49758;-72
2021/11/24 05:24:46;;;;;;;;;37.25;31.75;;;;;;;;5070669;27;49918;-72
2021/11/24 05:27:11;;;;;;;;;36.00;29.00;;;;;;;;5070239;28;49762;-72
2021/11/24 05:29:36;;;;;;;;;34.50;29.50;;;;;;;;5070303;28;49854;-72
2021/11/24 05:32:02;;;;;;;;;40.00;30.00;;;;;;;;5070375;28;50067;-72
2021/11/24 05:34:27;;;;;;;;;33.50;32.00;;;;;;;;5070943;27;49703;-72
2021/11/24 05:36:52;;;;;;;;;33.25;29.50;;;;;;;;5073851;28;49888;-72
2021/11/24 05:39:18;;;;;;;;;37.25;34.25;;;;;;;;5073883;28;49944;-72
2021/11/24 05:41:43;;;;;;;;;24.00;21.50;;;;;;;;5072389;28;49898;-73
2021/11/24 05:44:48;;;;;;;;;44.50;30.50;;;;;;;;5073815;28;49853;-71
2021/11/24 05:47:09;;;;;;;;;30.50;27.25;;;;;;;;5069140;28;50999;-76
2021/11/24 05:49:36;;;;;;;;;26.50;23.00;;;;;;;;5073536;27;49729;-76
2021/11/24 05:52:02;;;;;;;;;31.75;29.25;;;;;;;;5072380;28;49666;-73
2021/11/24 05:54:27;;;;;;;;;25.25;24.00;;;;;;;;5072454;28;49759;-77
2021/11/24 05:56:52;;;;;;;;;32.25;26.00;;;;;;;;5071768;28;50813;-76
2021/11/24 05:59:18;;;;;;;;;32.25;25.75;;;;;;;;5073445;27;49987;-75
2021/11/24 06:01:44;;;;;;;;;25.25;23.75;;;;;;;;5073524;28;49647;-72
2021/11/24 06:04:09;;;;;;;;;35.00;29.75;;;;;;;;5073445;28;49792;-72
2021/11/24 06:06:34;;;;;;;;;33.25;29.00;;;;;;;;5073038;28;49876;-72
2021/11/24 06:09:00;;;;;;;;;33.75;30.00;;;;;;;;5073368;27;49910;-71
2021/11/24 06:11:26;;;;;;;;;35.75;29.25;;;;;;;;5073400;27;49805;-71
2021/11/24 06:13:51;;;;;;;;;28.50;25.50;;;;;;;;5072205;28;49581;-72
2021/11/24 06:16:17;;;;;;;;;31.25;27.75;;;;;;;;5073124;27;49896;-72
2021/11/24 06:18:42;;;;;;;;;35.25;30.00;;;;;;;;5071421;28;49836;-72
2021/11/24 06:21:07;;;;;;;;;34.75;30.00;;;;;;;;5073138;27;49686;-72
2021/11/24 06:23:38;;;;;;;;;28.50;20.75;;;;;;;;5071916;28;50036;-71
2021/11/24 06:26:03;;;;;;;;;32.50;28.25;;;;;;;;5072848;28;50624;-71
2021/11/24 06:28:28;;;;;;;;;33.50;28.25;;;;;;;;5072995;28;49684;-72
2021/11/24 06:30:54;;;;;;;;;35.00;29.50;;;;;;;;5073092;28;49865;-72
2021/11/24 06:33:19;;;;;;;;;33.25;29.00;;;;;;;;5072882;28;50237;-71
2021/11/24 06:35:44;;;;;;;;;32.00;28.25;;;;;;;;5072703;27;50334;-72
2021/11/24 06:38:09;;;;;;;;;35.25;29.00;;;;;;;;5072857;28;49728;-72
2021/11/24 06:40:35;;;;;;;;;35.50;32.25;;;;;;;;5072740;28;49930;-72
2021/11/24 06:43:00;;;;;;;;;31.75;27.75;;;;;;;;5073037;28;49903;-72
2021/11/24 06:45:25;;;;;;;;;36.25;32.25;;;;;;;;5072222;28;49829;-72
2021/11/24 06:47:50;;;;;;;;;43.50;30.50;;;;;;;;5072088;28;49852;-72
2021/11/24 06:50:16;;;;;;;;;43.50;35.00;;;;;;;;5071125;28;49815;-74
2021/11/24 06:52:41;;;;;;;;;37.50;28.50;;;;;;;;5070163;27;49580;-76
2021/11/24 06:55:07;;;;;;;;;40.25;36.25;;;;;;;;5071006;28;51233;-73
2021/11/24 06:57:32;;;;;;;;;39.50;35.00;;;;;;;;5072444;27;49895;-69
2021/11/24 06:59:58;;;;;;;;;43.75;38.75;;;;;;;;5072619;27;49762;-69
2021/11/24 07:02:23;;;;;;;;;45.75;40.25;;;;;;;;5072769;28;49900;-74
2021/11/24 07:04:48;;;;;;;;;53.25;44.00;;;;;;;;5074957;27;49746;-70
2021/11/24 07:07:13;;;;;;;;;37.50;37.00;;;;;;;;5071891;27;49838;-75
2021/11/24 07:09:40;;;;;;;;;40.00;36.50;;;;;;;;5072274;27;49739;-72
2021/11/24 07:12:06;;;;;;;;;41.75;37.00;;;;;;;;5072591;27;49683;-73
2021/11/24 07:14:31;;;;;;;;;50.75;44.25;;;;;;;;5071963;27;50417;-72
2021/11/24 07:16:58;;;;;;;;;51.00;42.75;;;;;;;;5072073;28;49889;-73
2021/11/24 07:19:24;;;;;;;;;57.00;42.75;;;;;;;;5071461;27;49931;-71
2021/11/24 07:21:49;;;;;;;;;55.25;47.00;;;;;;;;5070955;28;49787;-73
2021/11/24 07:24:15;;;;;;;;;38.75;36.25;;;;;;;;5070070;27;50180;-75
2021/11/24 07:26:40;;;;;;;;;40.75;38.00;;;;;;;;5070089;28;50017;-74
2021/11/24 07:29:06;;;;;;;;;27.75;27.50;;;;;;;;5068732;28;49860;-74
2021/11/24 07:31:31;;;;;;;;;30.00;24.25;;;;;;;;5070447;27;49890;-75
2021/11/24 07:33:56;;;;;;;;;29.00;26.00;;;;;;;;5070714;27;50641;-74
2021/11/24 07:36:21;;;;;;;;;31.25;26.75;;;;;;;;5070846;27;49764;-75
2021/11/24 07:38:46;;;;;;;;;29.50;22.00;;;;;;;;5071858;27;49699;-74
2021/11/24 07:41:12;;;;;;;;;30.00;23.25;;;;;;;;5072080;27;49880;-75
2021/11/24 07:43:37;;;;;;;;;32.75;29.25;;;;;;;;5071783;27;50061;-77
2021/11/24 07:46:02;;;;;;;;;23.75;20.50;;;;;;;;5070246;28;49775;-75
2021/11/24 07:48:28;;;;;;;;;29.50;29.00;;;;;;;;5071392;27;49817;-77
2021/11/24 07:50:53;;;;;;;;;34.50;28.50;;;;;;;;5071859;27;49664;-76
2021/11/24 07:53:18;;;;;;;;;33.25;30.00;;;;;;;;5074196;27;49976;-73
2021/11/24 07:55:43;;;;;;;;;45.25;36.25;;;;;;;;5071270;28;49648;-75
2021/11/24 07:58:09;;;;;;;;;25.50;25.50;;;;;;;;5071189;27;49858;-74
2021/11/24 08:00:34;;;;;;;;;36.25;31.75;;;;;;;;5071797;27;49836;-76
2021/11/24 08:02:59;;;;;;;;;28.25;25.00;;;;;;;;5069766;27;49683;-76
2021/11/24 08:05:24;;;;;;;;;36.50;28.50;;;;;;;;5069512;27;49975;-72
2021/11/24 08:07:50;;;;;;;;;27.50;21.75;;;;;;;;5070470;27;49934;-74
2021/11/24 08:10:17;;;;;;;;;29.75;25.75;;;;;;;;5075352;28;49976;-75
2021/11/24 08:12:42;;;;;;;;;38.50;27.75;;;;;;;;5074120;28;50449;-65
2021/11/24 08:15:08;;;;;;;;;30.75;25.75;;;;;;;;5071408;27;49626;-61
2021/11/24 08:17:33;;;;;;;;;31.75;25.75;;;;;;;;5071594;28;49964;-61
2021/11/24 08:19:59;;;;;;;;;32.75;29.75;;;;;;;;5069777;27;49852;-61
2021/11/24 08:22:25;;;;;;;;;25.75;23.75;;;;;;;;5070575;27;51449;-61
2021/11/24 08:24:50;;;;;;;;;26.00;24.50;;;;;;;;5073775;27;49907;-66
2021/11/24 08:27:16;;;;;;;;;35.50;27.00;;;;;;;;5081073;28;49537;-69
2021/11/24 08:29:41;;;;;;;;;22.00;21.75;;;;;;;;5082840;27;49624;-67
2021/11/24 08:32:07;;;;;;;;;34.00;28.75;;;;;;;;5067418;28;49559;-68
2021/11/24 08:34:32;;;;;;;;;31.00;28.25;;;;;;;;5060590;28;49640;-68
2021/11/24 08:36:57;;;;;;;;;37.25;28.00;;;;;;;;5076545;28;49691;-68
2021/11/24 08:39:25;;;;;;;;;31.75;26.00;;;;;;;;5079750;28;49726;-69
2021/11/24 08:41:50;;;;;;;;;26.25;23.25;;;;;;;;5072288;28;49622;-68
2021/11/24 08:44:15;;;;;;;;;32.75;23.25;;;;;;;;5070336;28;49777;-67
2021/11/24 08:46:40;;;;;;;;;29.75;22.25;;;;;;;;5069968;28;49844;-66
2021/11/24 08:49:06;;;;;;;;;25.75;25.75;;;;;;;;5071736;28;49706;-68
2021/11/24 08:51:32;;;;;;;;;25.25;22.25;;;;;;;;5069605;28;50119;-69
2021/11/24 08:53:57;;;;;;;;;31.50;24.25;;;;;;;;5071900;28;49631;-70
2021/11/24 08:56:22;;;;;;;;;34.25;26.50;;;;;;;;5076497;28;49891;-67
2021/11/24 08:58:48;;;;;;;;;31.25;26.00;;;;;;;;5080497;28;49552;-68
2021/11/24 09:01:13;;;;;;;;;27.75;24.25;;;;;;;;5086433;28;49971;-68
2021/11/24 09:03:38;;;;;;;;;33.25;29.00;;;;;;;;5071626;28;49760;-67
2021/11/24 09:06:05;;;;;;;;;28.00;24.75;;;;;;;;5073411;28;49699;-69
2021/11/24 09:08:31;;;;;;;;;23.75;22.75;;;;;;;;5072597;27;49735;-69
2021/11/24 09:10:56;;;;;;;;;27.00;24.50;;;;;;;;5074419;28;49706;-66
2021/11/24 09:13:21;;;;;;;;;22.25;20.50;;;;;;;;5083521;28;49608;-67
2021/11/24 09:15:46;;;;;;;;;31.25;27.00;;;;;;;;5076035;28;49931;-69
2021/11/24 09:18:12;;;;;;;;;26.25;21.50;;;;;;;;5083353;28;49998;-68
2021/11/24 09:20:37;;;;;;;;;22.25;21.50;;;;;;;;5074982;28;49933;-69
2021/11/24 09:23:03;;;;;;;;;24.75;23.00;;;;;;;;5074669;28;50003;-68
2021/11/24 09:25:37;;;;;;;;;30.00;26.25;;;;;;;;5073620;27;49989;-68
2021/11/24 09:28:10;;;;;;;;;35.75;23.00;;;;;;;;5078359;27;49551;-68
2021/11/24 09:30:36;;;;;;;;;29.00;22.75;;;;;;;;5078368;27;50434;-68
2021/11/24 09:33:01;;;;;;;;;26.50;22.75;;;;;;;;5088746;27;49358;-67
2021/11/24 09:35:26;;;;;;;;;31.25;27.00;;;;;;;;5081360;28;49835;-68
2021/11/24 09:37:51;;;;;;;;;32.50;26.75;;;;;;;;5083070;27;49798;-66
2021/11/24 09:40:17;;;;;;;;;23.50;23.25;;;;;;;;5078829;28;49869;-68
2021/11/24 09:42:43;;;;;;;;;35.50;30.00;;;;;;;;5084726;28;49758;-66
2021/11/24 09:45:09;;;;;;;;;24.25;20.50;;;;;;;;5089549;28;49332;-67
2021/11/24 09:47:35;;;;;;;;;26.50;24.75;;;;;;;;5080920;27;49776;-67
2021/11/24 09:50:01;;;;;;;;;21.75;21.75;;;;;;;;5089622;27;49758;-68
2021/11/24 09:52:27;;;;;;;;;26.00;22.00;;;;;;;;5089523;27;49469;-71
2021/11/24 09:54:53;;;;;;;;;30.00;28.75;;;;;;;;5087231;27;50078;-70
2021/11/24 09:57:20;;;;;;;;;22.75;21.25;;;;;;;;5077716;27;49668;-67
2021/11/24 09:59:46;;;;;;;;;21.50;20.00;;;;;;;;5083973;28;50584;-70
2021/11/24 10:02:12;;;;;;;;;26.75;22.00;;;;;;;;5088970;27;49450;-68
2021/11/24 10:04:37;;;;;;;;;34.25;27.25;;;;;;;;5083436;27;49828;-67
2021/11/24 10:07:02;;;;;;;;;30.25;23.50;;;;;;;;5083560;28;49763;-68
2021/11/24 10:09:27;;;;;;;;;24.75;23.00;;;;;;;;5081060;27;50250;-67
2021/11/24 10:11:53;;;;;;;;;27.00;23.75;;;;;;;;5079324;27;49718;-68
2021/11/24 10:14:18;;;;;;;;;29.00;21.50;;;;;;;;5078427;27;50109;-67
2021/11/24 10:16:44;;;;;;;;;33.50;28.25;;;;;;;;5087706;27;49622;-80
2021/11/24 10:19:09;;;;;;;;;29.75;24.50;;;;;;;;5087556;28;50043;-72
2021/11/24 10:21:35;;;;;;;;;29.50;23.00;;;;;;;;5081220;28;49962;-71
2021/11/24 10:24:02;;;;;;;;;32.50;24.50;;;;;;;;5080738;27;49579;-77
2021/11/24 10:26:33;;;;;;;;;31.00;31.00;;;;;;;;5077119;27;50398;-74
2021/11/24 10:28:58;;;;;;;;;35.50;27.00;;;;;;;;5086264;28;50353;-78
2021/11/24 10:31:44;;;;;;;;;20.00;20.00;;;;;;;;5080528;27;49695;-70
2021/11/24 10:34:14;;;;;;;;;24.50;24.00;;;;;;;;5081438;27;49609;-78
2021/11/24 10:36:49;;;;;;;;;23.75;21.00;;;;;;;;5087393;27;49702;-73
2021/11/24 10:39:15;;;;;;;;;24.00;20.75;;;;;;;;5085228;27;49467;-75
2021/11/24 10:41:40;;;;;;;;;25.50;21.50;;;;;;;;5082597;27;49836;-75
2021/11/24 10:44:06;;;;;;;;;29.00;23.00;;;;;;;;5084989;27;49843;-74
2021/11/24 10:46:34;;;;;;;;;25.75;23.00;;;;;;;;5076470;27;49868;-75
2021/11/24 10:49:09;;;;;;;;;21.75;19.50;;;;;;;;5085891;27;49951;-80
2021/11/24 10:51:39;;;;;;;;;25.75;21.25;;;;;;;;5088935;27;49483;-77
2021/11/24 10:54:05;;;;;;;;;15.50;15.50;;;;;;;;5089276;28;49766;-72
2021/11/24 10:56:31;;;;;;;;;26.50;20.00;;;;;;;;5089720;27;49626;-80
2021/11/24 10:59:18;;;;;;;;;22.50;22.50;;;;;;;;5086552;27;49967;-81
2021/11/24 11:01:44;;;;;;;;;26.50;21.75;;;;;;;;5086498;27;49690;-78
2021/11/24 11:04:09;;;;;;;;;25.50;23.75;;;;;;;;5089351;27;49695;-85
2021/11/24 11:06:34;;;;;;;;;21.25;19.25;;;;;;;;5089408;27;49336;-74
2021/11/24 11:09:00;;;;;;;;;26.50;25.75;;;;;;;;5081043;28;49675;-75
2021/11/24 11:11:29;;;;;;;;;25.00;24.50;;;;;;;;5073157;28;49727;-76
2021/11/24 11:14:15;;;;;;;;;22.25;21.00;;;;;;;;5076005;28;49588;-87
2021/11/24 11:16:41;;;;;;;;;30.00;22.75;;;;;;;;5085014;28;49387;-72
2021/11/24 11:19:06;;;;;;;;;32.00;25.00;;;;;;;;5089804;27;49527;-76
2021/11/24 11:21:34;;;;;;;;;29.75;23.50;;;;;;;;5089006;28;49673;-77
2021/11/24 11:24:05;;;;;;;;;28.75;25.50;;;;;;;;5084839;27;49396;-74
2021/11/24 11:26:30;;;;;;;;;29.75;21.50;;;;;;;;5090261;27;49468;-74
2021/11/24 11:28:56;;;;;;;;;24.75;23.50;;;;;;;;5090048;28;49590;-74
2021/11/24 11:31:22;;;;;;;;;25.00;21.50;;;;;;;;5089371;27;49184;-74
2021/11/24 11:33:49;;;;;;;;;27.00;25.25;;;;;;;;5088749;27;49445;-77
2021/11/24 11:36:15;;;;;;;;;24.75;22.25;;;;;;;;5089898;28;49588;-78
2021/11/24 11:39:07;;;;;;;;;23.50;21.00;;;;;;;;5088057;28;50376;-78
2021/11/24 11:41:33;;;;;;;;;24.00;24.00;;;;;;;;5075503;27;49695;-71
2021/11/24 11:43:59;;;;;;;;;25.25;21.50;;;;;;;;5073610;27;50023;-68
2021/11/24 11:46:26;;;;;;;;;20.50;20.25;;;;;;;;5070883;27;49944;-76
2021/11/24 11:48:52;;;;;;;;;21.25;21.00;;;;;;;;5073031;27;49813;-65
2021/11/24 11:51:32;;;;;;;;;28.00;25.50;;;;;;;;5075458;28;49613;-65
2021/11/24 11:53:58;;;;;;;;;29.50;25.25;;;;;;;;5074615;27;49827;-68
2021/11/24 11:56:30;;;;;;;;;20.75;19.00;;;;;;;;5072233;27;49592;-64
2021/11/24 11:59:03;;;;;;;;;25.25;23.25;;;;;;;;5071512;28;50056;-65
2021/11/24 12:01:36;;;;;;;;;22.00;20.00;;;;;;;;5071572;27;49656;-65
2021/11/24 12:04:09;;;;;;;;;31.50;26.00;;;;;;;;5077786;28;49596;-70
2021/11/24 12:06:38;;;;;;;;;26.00;25.25;;;;;;;;5071539;27;50004;-65
2021/11/24 12:09:14;;;;;;;;;24.75;19.75;;;;;;;;5071289;27;49707;-64
2021/11/24 12:11:58;;;;;;;;;20.75;20.75;;;;;;;;5073149;27;49901;-65
2021/11/24 12:14:41;;;;;;;;;21.75;17.50;;;;;;;;5071696;27;49686;-64
2021/11/24 12:17:25;;;;;;;;;26.75;21.50;;;;;;;;5071635;27;49788;-64
2021/11/24 12:19:50;;;;;;;;;26.25;23.00;;;;;;;;5071914;27;49703;-69
2021/11/24 12:22:16;;;;;;;;;22.25;20.75;;;;;;;;5071179;28;49624;-70
2021/11/24 12:24:41;;;;;;;;;20.75;19.25;;;;;;;;5071371;27;49648;-69
2021/11/24 12:27:06;;;;;;;;;25.00;23.75;;;;;;;;5072196;28;49739;-70
2021/11/24 12:29:47;;;;;;;;;19.25;19.00;;;;;;;;5075110;28;49813;-69
2021/11/24 12:32:15;;;;;;;;;23.50;21.75;;;;;;;;5071541;27;49832;-68
2021/11/24 12:34:48;;;;;;;;;27.50;21.00;;;;;;;;5073862;28;49766;-69
2021/11/24 12:37:17;;;;;;;;;26.25;24.75;;;;;;;;5066094;27;49953;-69
2021/11/24 12:39:42;;;;;;;;;23.25;23.25;;;;;;;;5070287;28;49807;-68
2021/11/24 12:42:08;;;;;;;;;32.50;26.00;;;;;;;;5072279;27;49890;-71
2021/11/24 12:44:33;;;;;;;;;24.25;22.50;;;;;;;;5069716;27;49475;-71
2021/11/24 12:46:58;;;;;;;;;27.50;25.50;;;;;;;;5077034;27;49907;-73
2021/11/24 12:49:24;;;;;;;;;22.50;22.50;;;;;;;;5061336;28;51832;-72
2021/11/24 12:51:51;;;;;;;;;30.25;25.00;;;;;;;;5071804;27;49580;-72
2021/11/24 12:54:22;;;;;;;;;25.25;25.00;;;;;;;;5075797;27;49686;-73
2021/11/24 12:56:49;;;;;;;;;27.25;26.75;;;;;;;;5075548;28;49732;-64
2021/11/24 12:59:17;;;;;;;;;20.75;18.00;;;;;;;;5054671;28;49847;-72
2021/11/24 13:01:53;;;;;;;;;21.75;19.25;;;;;;;;5065485;28;49964;-61
2021/11/24 13:04:20;;;;;;;;;20.50;17.75;;;;;;;;5072427;27;49769;-63
2021/11/24 13:06:47;;;;;;;;;19.00;18.00;;;;;;;;5075107;27;50151;-63
2021/11/24 13:09:12;;;;;;;;;21.00;18.00;;;;;;;;5072276;27;49975;-62
2021/11/24 13:11:50;;;;;;;;;14.25;14.25;;;;;;;;5072528;28;49724;-62
2021/11/24 13:14:16;;;;;;;;;18.00;18.00;;;;;;;;5069965;27;50066;-64
2021/11/24 13:16:41;;;;;;;;;26.00;25.75;;;;;;;;5069848;27;50044;-71
2021/11/24 13:19:06;;;;;;;;;20.50;17.00;;;;;;;;5069565;28;50810;-70
2021/11/24 13:21:31;;;;;;;;;19.50;18.50;;;;;;;;5072155;28;49845;-68
2021/11/24 13:24:05;;;;;;;;;20.50;20.50;;;;;;;;5076291;28;50163;-69
2021/11/24 13:26:30;;;;;;;;;13.50;11.00;;;;;;;;5071225;28;49696;-68
2021/11/24 13:28:56;;;;;;;;;17.50;14.50;;;;;;;;5072549;28;50720;-70
2021/11/24 13:31:21;;;;;;;;;18.00;16.50;;;;;;;;5070490;28;49756;-75
2021/11/24 13:33:46;;;;;;;;;21.00;19.75;;;;;;;;5073632;28;49973;-77
2021/11/24 13:36:13;;;;;;;;;22.25;20.00;;;;;;;;5067602;27;50065;-78
2021/11/24 13:38:39;;;;;;;;;24.75;22.50;;;;;;;;5068785;27;50575;-76
2021/11/24 13:41:17;;;;;;;;;15.50;10.25;;;;;;;;5068585;27;49745;-81
2021/11/24 13:43:48;;;;;;;;;21.75;18.50;;;;;;;;5070929;27;49744;-81
2021/11/24 13:46:22;;;;;;;;;17.25;17.25;;;;;;;;5072349;27;49772;-78
2021/11/24 13:48:48;;;;;;;;;25.00;20.00;;;;;;;;5086085;27;50059;-79
2021/11/24 13:51:17;;;;;;;;;20.25;16.75;;;;;;;;5086409;28;49275;-70
2021/11/24 13:53:42;;;;;;;;;18.00;16.25;;;;;;;;5077686;27;49638;-77
2021/11/24 13:56:25;;;;;;;;;13.50;13.50;;;;;;;;5086588;28;49633;-74
2021/11/24 13:58:54;;;;;;;;;22.75;16.00;;;;;;;;5089168;28;49578;-79
2021/11/24 14:01:20;;;;;;;;;17.00;15.50;;;;;;;;5089750;27;49565;-74
2021/11/24 14:03:52;;;;;;;;;16.50;15.50;;;;;;;;5082802;28;49728;-75
2021/11/24 14:06:38;;;;;;;;;16.00;15.75;;;;;;;;5087607;28;49686;-80
2021/11/24 14:09:37;;;;;;;;;14.25;12.00;;;;;;;;5089222;28;49494;-75
2021/11/24 14:12:03;;;;;;;;;15.50;15.25;;;;;;;;5085907;28;49479;-77
2021/11/24 14:14:39;;;;;;;;;18.00;14.25;;;;;;;;5088167;28;49310;-79